createdAt,value
2023-07-17T00:00:17.734Z,51.40
2023-07-17T00:01:18.002Z,51.40
2023-07-17T00:02:17.699Z,51.40
2023-07-17T00:03:17.813Z,51.72
2023-07-17T00:04:17.745Z,51.24
2023-07-17T00:05:17.705Z,51.24
2023-07-17T00:06:17.718Z,51.72
2023-07-17T00:07:17.667Z,50.92
2023-07-17T00:08:17.674Z,51.72
2023-07-17T00:09:17.694Z,51.56
2023-07-17T00:10:17.682Z,52.05
2023-07-17T00:11:18.006Z,52.37
2023-07-17T00:12:17.675Z,51.72
2023-07-17T00:13:17.671Z,51.40
2023-07-17T00:14:18.739Z,51.72
2023-07-17T00:15:17.636Z,52.21
2023-07-17T00:16:17.644Z,53.01
2023-07-17T00:17:17.671Z,51.88
2023-07-17T00:18:17.666Z,51.88
2023-07-17T00:19:17.630Z,51.72
2023-07-17T00:20:17.617Z,51.40
2023-07-17T00:21:17.815Z,51.72
2023-07-17T00:22:17.594Z,51.56
2023-07-17T00:23:17.633Z,51.88
2023-07-17T00:24:17.591Z,52.53
2023-07-17T00:25:17.580Z,52.05
2023-07-17T00:26:17.637Z,52.85
2023-07-17T00:27:17.615Z,52.05
2023-07-17T00:28:17.601Z,52.05
2023-07-17T00:29:17.604Z,52.53
2023-07-17T00:30:17.533Z,51.56
2023-07-17T00:31:17.752Z,52.21
2023-07-17T00:32:17.527Z,52.69
2023-07-17T00:33:17.555Z,52.53
2023-07-17T00:34:51.333Z,51.88
2023-07-17T00:35:17.505Z,52.05
2023-07-17T00:36:17.504Z,51.72
2023-07-17T00:37:17.534Z,52.21
2023-07-17T00:38:17.540Z,51.72
2023-07-17T00:39:17.538Z,52.21
2023-07-17T00:40:17.523Z,52.05
2023-07-17T00:41:17.777Z,51.56
2023-07-17T00:42:17.497Z,51.72
2023-07-17T00:43:17.498Z,51.40
2023-07-17T00:44:17.501Z,51.24
2023-07-17T00:45:17.497Z,51.56
2023-07-17T00:46:17.504Z,51.56
2023-07-17T00:47:17.473Z,51.72
2023-07-17T00:48:17.467Z,50.92
2023-07-17T00:49:17.472Z,50.92
2023-07-17T00:50:18.474Z,51.40
2023-07-17T00:51:17.760Z,51.40
2023-07-17T00:52:17.440Z,51.08
2023-07-17T00:53:17.446Z,51.24
2023-07-17T00:54:17.457Z,52.37
2023-07-17T00:55:17.409Z,52.05
2023-07-17T00:56:17.400Z,51.72
2023-07-17T00:57:17.421Z,53.01
2023-07-17T00:58:17.404Z,51.72
2023-07-17T00:59:17.395Z,51.88
2023-07-17T01:00:17.390Z,52.21
2023-07-17T01:01:17.800Z,52.69
2023-07-17T01:02:17.413Z,52.85
2023-07-17T01:03:17.445Z,52.53
2023-07-17T01:04:17.427Z,52.37
2023-07-17T01:05:17.397Z,52.21
2023-07-17T01:06:17.338Z,51.56
2023-07-17T01:07:17.346Z,52.21
2023-07-17T01:08:17.348Z,51.88
2023-07-17T01:09:17.385Z,51.88
2023-07-17T01:10:17.324Z,52.05
2023-07-17T01:11:17.592Z,52.21
2023-07-17T01:12:17.309Z,52.37
2023-07-17T01:13:17.319Z,51.72
2023-07-17T01:14:17.323Z,51.88
2023-07-17T01:15:17.319Z,52.05
2023-07-17T01:16:17.335Z,52.05
2023-07-17T01:17:17.343Z,52.37
2023-07-17T01:18:17.313Z,52.69
2023-07-17T01:19:17.300Z,52.37
2023-07-17T01:20:17.297Z,54.14
2023-07-17T01:21:17.620Z,52.21
2023-07-17T01:22:17.303Z,52.69
2023-07-17T01:23:17.255Z,52.05
2023-07-17T01:24:17.322Z,51.88
2023-07-17T01:25:17.301Z,51.72
2023-07-17T01:26:17.258Z,51.72
2023-07-17T01:27:17.280Z,51.72
2023-07-17T01:28:17.349Z,52.05
2023-07-17T01:29:17.282Z,52.37
2023-07-17T01:30:18.253Z,52.05
2023-07-17T01:31:17.480Z,52.37
2023-07-17T01:32:17.244Z,52.21
2023-07-17T01:33:17.225Z,52.37
2023-07-17T01:34:17.254Z,53.01
2023-07-17T01:35:17.228Z,52.37
2023-07-17T01:36:17.217Z,52.53
2023-07-17T01:37:17.200Z,52.69
2023-07-17T01:38:17.215Z,53.01
2023-07-17T01:39:17.209Z,52.21
2023-07-17T01:40:17.233Z,52.05
2023-07-17T01:41:17.348Z,52.21
2023-07-17T01:42:17.177Z,51.88
2023-07-17T01:43:17.160Z,51.88
2023-07-17T01:44:17.168Z,51.72
2023-07-17T01:45:17.204Z,52.05
2023-07-17T01:46:17.226Z,53.01
2023-07-17T01:47:17.143Z,57.69
2023-07-17T01:48:17.142Z,52.53
2023-07-17T01:49:17.134Z,52.69
2023-07-17T01:50:17.128Z,52.37
2023-07-17T01:51:17.545Z,53.01
2023-07-17T01:52:17.140Z,52.85
2023-07-17T01:53:17.105Z,53.17
2023-07-17T01:54:17.098Z,53.17
2023-07-17T01:55:17.139Z,52.69
2023-07-17T01:56:17.161Z,53.01
2023-07-17T01:57:17.142Z,53.82
2023-07-17T01:58:17.086Z,56.24
2023-07-17T01:59:17.768Z,53.01
2023-07-17T02:00:17.066Z,53.50
2023-07-17T02:01:17.333Z,53.17
2023-07-17T02:02:17.099Z,52.85
2023-07-17T02:03:17.079Z,53.98
2023-07-17T02:04:17.100Z,53.17
2023-07-17T02:05:17.185Z,53.50
2023-07-17T02:06:17.040Z,52.85
2023-07-17T02:07:17.079Z,53.50
2023-07-17T02:08:17.045Z,53.50
2023-07-17T02:09:17.037Z,53.33
2023-07-17T02:10:18.023Z,53.66
2023-07-17T02:11:17.327Z,53.33
2023-07-17T02:12:17.034Z,53.01
2023-07-17T02:13:17.039Z,54.14
2023-07-17T02:14:16.987Z,57.20
2023-07-17T02:15:16.991Z,53.33
2023-07-17T02:16:17.008Z,54.30
2023-07-17T02:17:17.008Z,57.69
2023-07-17T02:18:17.012Z,55.27
2023-07-17T02:19:16.969Z,55.59
2023-07-17T02:20:16.998Z,53.66
2023-07-17T02:21:17.193Z,54.79
2023-07-17T02:22:16.938Z,56.07
2023-07-17T02:23:16.964Z,53.98
2023-07-17T02:24:16.989Z,54.46
2023-07-17T02:25:16.919Z,54.95
2023-07-17T02:26:16.932Z,53.50
2023-07-17T02:27:17.919Z,55.27
2023-07-17T02:28:16.935Z,54.30
2023-07-17T02:29:16.929Z,53.98
2023-07-17T02:30:16.884Z,53.66
2023-07-17T02:31:17.379Z,53.50
2023-07-17T02:32:16.947Z,53.33
2023-07-17T02:33:16.882Z,53.98
2023-07-17T02:34:16.875Z,54.46
2023-07-17T02:35:16.921Z,53.33
2023-07-17T02:36:16.896Z,54.30
2023-07-17T02:37:16.857Z,54.62
2023-07-17T02:38:16.872Z,54.46
2023-07-17T02:39:16.841Z,54.62
2023-07-17T02:40:16.892Z,55.27
2023-07-17T02:41:17.377Z,56.88
2023-07-17T02:42:16.851Z,54.46
2023-07-17T02:43:16.836Z,53.82
2023-07-17T02:44:16.830Z,53.82
2023-07-17T02:45:16.867Z,54.79
2023-07-17T02:46:16.903Z,56.24
2023-07-17T02:47:16.823Z,54.46
2023-07-17T02:48:16.831Z,54.95
2023-07-17T02:49:16.815Z,54.95
2023-07-17T02:50:16.814Z,54.79
2023-07-17T02:51:17.133Z,54.46
2023-07-17T02:52:16.770Z,55.59
2023-07-17T02:53:16.783Z,55.43
2023-07-17T02:54:16.794Z,55.59
2023-07-17T02:55:16.790Z,55.91
2023-07-17T02:56:16.779Z,56.24
2023-07-17T02:57:16.792Z,55.75
2023-07-17T02:58:16.763Z,56.24
2023-07-17T02:59:16.750Z,56.40
2023-07-17T03:00:16.798Z,56.07
2023-07-17T03:01:17.196Z,56.56
2023-07-17T03:02:16.758Z,59.62
2023-07-17T03:03:16.732Z,58.01
2023-07-17T03:04:16.757Z,57.36
2023-07-17T03:05:16.737Z,57.04
2023-07-17T03:06:16.719Z,55.11
2023-07-17T03:07:16.734Z,55.59
2023-07-17T03:08:16.686Z,57.04
2023-07-17T03:09:16.697Z,55.75
2023-07-17T03:10:16.695Z,55.75
2023-07-17T03:11:16.900Z,56.24
2023-07-17T03:12:16.691Z,56.24
2023-07-17T03:13:16.687Z,56.07
2023-07-17T03:14:16.683Z,56.56
2023-07-17T03:15:16.651Z,55.75
2023-07-17T03:16:16.723Z,57.52
2023-07-17T03:17:16.700Z,56.56
2023-07-17T03:18:16.654Z,55.43
2023-07-17T03:19:16.646Z,58.49
2023-07-17T03:20:16.649Z,56.24
2023-07-17T03:21:17.039Z,57.36
2023-07-17T03:22:16.631Z,56.56
2023-07-17T03:23:16.645Z,59.14
2023-07-17T03:24:16.632Z,56.72
2023-07-17T03:25:16.610Z,56.72
2023-07-17T03:26:16.606Z,59.14
2023-07-17T03:27:16.586Z,57.04
2023-07-17T03:28:16.611Z,55.43
2023-07-17T03:29:16.606Z,58.81
2023-07-17T03:30:16.586Z,56.24
2023-07-17T03:31:16.839Z,56.56
2023-07-17T03:32:16.626Z,56.88
2023-07-17T03:33:16.704Z,60.91
2023-07-17T03:34:16.537Z,61.23
2023-07-17T03:35:16.569Z,55.91
2023-07-17T03:36:16.543Z,55.59
2023-07-17T03:37:16.550Z,58.33
2023-07-17T03:38:16.544Z,57.20
2023-07-17T03:39:16.497Z,55.91
2023-07-17T03:40:16.503Z,58.01
2023-07-17T03:41:16.689Z,57.04
2023-07-17T03:42:16.537Z,58.17
2023-07-17T03:43:16.486Z,57.52
2023-07-17T03:44:16.463Z,58.33
2023-07-17T03:45:16.462Z,58.01
2023-07-17T03:46:16.485Z,55.59
2023-07-17T03:47:16.591Z,55.27
2023-07-17T03:48:16.461Z,56.24
2023-07-17T03:49:16.427Z,56.40
2023-07-17T03:50:16.474Z,56.56
2023-07-17T03:51:16.538Z,56.07
2023-07-17T03:52:16.524Z,55.43
2023-07-17T03:53:16.414Z,55.91
2023-07-17T03:54:16.461Z,57.20
2023-07-17T03:55:16.416Z,59.14
2023-07-17T03:56:16.416Z,58.01
2023-07-17T03:57:16.416Z,56.07
2023-07-17T03:58:16.401Z,56.56
2023-07-17T03:59:16.424Z,59.94
2023-07-17T04:00:16.394Z,56.88
2023-07-17T04:01:16.815Z,58.33
2023-07-17T04:02:16.406Z,58.81
2023-07-17T04:03:16.453Z,57.04
2023-07-17T04:04:16.397Z,60.75
2023-07-17T04:05:16.378Z,56.40
2023-07-17T04:06:16.364Z,60.42
2023-07-17T04:07:16.394Z,61.07
2023-07-17T04:08:16.338Z,59.14
2023-07-17T04:09:16.445Z,59.14
2023-07-17T04:10:16.385Z,59.62
2023-07-17T04:11:16.579Z,57.52
2023-07-17T04:12:16.396Z,59.94
2023-07-17T04:13:16.327Z,66.06
2023-07-17T04:14:16.299Z,59.46
2023-07-17T04:15:16.331Z,62.68
2023-07-17T04:16:16.334Z,58.49
2023-07-17T04:17:16.371Z,58.65
2023-07-17T04:18:16.292Z,58.33
2023-07-17T04:19:16.290Z,56.07
2023-07-17T04:20:16.282Z,56.88
2023-07-17T04:21:16.374Z,59.46
2023-07-17T04:22:16.261Z,60.75
2023-07-17T04:23:16.266Z,60.26
2023-07-17T04:24:16.335Z,57.36
2023-07-17T04:25:16.255Z,58.65
2023-07-17T04:26:16.254Z,58.01
2023-07-17T04:27:16.272Z,58.17
2023-07-17T04:28:16.229Z,59.30
2023-07-17T04:29:16.235Z,58.33
2023-07-17T04:30:16.263Z,60.10
2023-07-17T04:31:16.403Z,57.52
2023-07-17T04:32:16.255Z,57.69
2023-07-17T04:33:16.205Z,65.26
2023-07-17T04:34:16.189Z,61.39
2023-07-17T04:35:16.205Z,60.10
2023-07-17T04:36:16.169Z,58.81
2023-07-17T04:37:16.244Z,58.01
2023-07-17T04:38:16.174Z,60.10
2023-07-17T04:39:16.144Z,63.49
2023-07-17T04:40:16.914Z,58.17
2023-07-17T04:41:16.274Z,61.07
2023-07-17T04:42:16.139Z,60.91
2023-07-17T04:43:16.188Z,60.59
2023-07-17T04:44:16.201Z,59.78
2023-07-17T04:45:16.119Z,60.75
2023-07-17T04:46:16.152Z,59.30
2023-07-17T04:47:16.155Z,58.33
2023-07-17T04:48:16.194Z,59.78
2023-07-17T04:49:16.132Z,60.59
2023-07-17T04:50:16.131Z,58.97
2023-07-17T04:51:16.248Z,61.87
2023-07-17T04:52:16.096Z,60.91
2023-07-17T04:53:16.086Z,60.10
2023-07-17T04:54:16.090Z,59.78
2023-07-17T04:55:16.091Z,58.97
2023-07-17T04:56:16.078Z,57.52
2023-07-17T04:57:16.065Z,65.10
2023-07-17T04:58:16.039Z,58.49
2023-07-17T04:59:16.081Z,59.14
2023-07-17T05:00:16.078Z,59.62
2023-07-17T05:01:16.471Z,59.94
2023-07-17T05:02:16.032Z,62.20
2023-07-17T05:03:16.238Z,59.62
2023-07-17T05:04:16.087Z,62.04
2023-07-17T05:05:16.060Z,59.46
2023-07-17T05:06:15.999Z,63.49
2023-07-17T05:07:16.021Z,59.30
2023-07-17T05:08:15.995Z,58.97
2023-07-17T05:09:16.005Z,61.23
2023-07-17T05:10:16.132Z,60.10
2023-07-17T05:11:16.127Z,64.29
2023-07-17T05:12:15.990Z,63.16
2023-07-17T05:13:16.000Z,58.01
2023-07-17T05:14:15.959Z,59.62
2023-07-17T05:15:16.149Z,60.10
2023-07-17T05:16:16.014Z,58.81
2023-07-17T05:17:15.955Z,63.49
2023-07-17T05:18:15.950Z,64.94
2023-07-17T05:19:15.947Z,58.17
2023-07-17T05:20:15.981Z,57.69
2023-07-17T05:21:16.340Z,58.65
2023-07-17T05:22:15.935Z,66.06
2023-07-17T05:23:15.961Z,65.10
2023-07-17T05:24:15.902Z,57.04
2023-07-17T05:25:15.926Z,60.91
2023-07-17T05:26:15.935Z,65.74
2023-07-17T05:27:15.893Z,58.81
2023-07-17T05:28:15.896Z,58.17
2023-07-17T05:29:15.864Z,63.65
2023-07-17T05:30:15.928Z,59.94
2023-07-17T05:31:16.137Z,65.10
2023-07-17T05:32:15.871Z,59.30
2023-07-17T05:33:15.849Z,57.04
2023-07-17T05:34:15.859Z,60.26
2023-07-17T05:35:19.183Z,56.40
2023-07-17T05:36:15.842Z,57.04
2023-07-17T05:37:15.840Z,56.40
2023-07-17T05:38:15.833Z,57.52
2023-07-17T05:39:15.825Z,60.59
2023-07-17T05:40:15.860Z,59.46
2023-07-17T05:41:15.994Z,60.75
2023-07-17T05:42:15.843Z,62.68
2023-07-17T05:43:15.794Z,58.33
2023-07-17T05:44:15.810Z,57.04
2023-07-17T05:45:15.815Z,57.69
2023-07-17T05:46:15.813Z,64.13
2023-07-17T05:47:15.795Z,60.75
2023-07-17T05:48:15.788Z,60.10
2023-07-17T05:49:15.787Z,59.62
2023-07-17T05:50:15.774Z,65.42
2023-07-17T05:51:16.017Z,60.75
2023-07-17T05:52:15.773Z,60.42
2023-07-17T05:53:15.779Z,70.09
2023-07-17T05:54:15.759Z,59.78
2023-07-17T05:55:15.779Z,62.84
2023-07-17T05:56:15.742Z,58.33
2023-07-17T05:57:15.708Z,61.55
2023-07-17T05:58:15.716Z,59.78
2023-07-17T05:59:15.737Z,61.87
2023-07-17T06:00:15.727Z,57.69
2023-07-17T06:01:15.923Z,58.49
2023-07-17T06:02:15.692Z,56.88
2023-07-17T06:03:15.720Z,61.71
2023-07-17T06:04:15.739Z,57.36
2023-07-17T06:05:15.806Z,60.26
2023-07-17T06:06:15.666Z,58.65
2023-07-17T06:07:15.681Z,60.26
2023-07-17T06:08:15.826Z,69.29
2023-07-17T06:09:15.656Z,65.10
2023-07-17T06:10:15.674Z,63.65
2023-07-17T06:11:16.013Z,63.33
2023-07-17T06:12:15.675Z,62.20
2023-07-17T06:13:17.239Z,59.46
2023-07-17T06:14:15.653Z,68.00
2023-07-17T06:15:15.792Z,67.19
2023-07-17T06:16:15.705Z,59.62
2023-07-17T06:17:15.668Z,61.87
2023-07-17T06:18:15.749Z,55.43
2023-07-17T06:19:16.868Z,58.49
2023-07-17T06:20:17.542Z,57.36
2023-07-17T06:21:16.126Z,59.62
2023-07-17T06:22:15.734Z,63.16
2023-07-17T06:23:15.703Z,60.42
2023-07-17T06:24:15.697Z,57.20
2023-07-17T06:25:15.722Z,62.52
2023-07-17T06:26:15.680Z,56.72
2023-07-17T06:27:15.661Z,56.07
2023-07-17T06:28:15.672Z,58.33
2023-07-17T06:29:15.558Z,63.97
2023-07-17T06:30:15.595Z,63.16
2023-07-17T06:31:15.891Z,57.20
2023-07-17T06:32:15.644Z,56.88
2023-07-17T06:33:15.600Z,61.87
2023-07-17T06:34:15.566Z,59.94
2023-07-17T06:35:15.554Z,64.45
2023-07-17T06:36:15.566Z,58.81
2023-07-17T06:37:15.563Z,57.69
2023-07-17T06:38:15.540Z,64.45
2023-07-17T06:39:15.917Z,57.04
2023-07-17T06:40:15.552Z,59.46
2023-07-17T06:41:15.658Z,57.36
2023-07-17T06:42:15.509Z,62.04
2023-07-17T06:43:15.509Z,60.42
2023-07-17T06:44:15.489Z,59.30
2023-07-17T06:45:15.514Z,54.46
2023-07-17T06:46:15.544Z,59.62
2023-07-17T06:47:29.686Z,60.26
2023-07-17T06:48:16.521Z,54.79
2023-07-17T06:49:15.516Z,57.36
2023-07-17T06:50:15.463Z,61.71
2023-07-17T06:51:15.475Z,53.98
2023-07-17T06:52:15.429Z,52.69
2023-07-17T06:53:15.435Z,57.36
2023-07-17T06:54:15.449Z,57.04
2023-07-17T06:55:15.449Z,55.11
2023-07-17T06:56:15.583Z,58.97
2023-07-17T06:57:15.421Z,52.53
2023-07-17T06:58:15.457Z,53.98
2023-07-17T06:59:15.417Z,54.95
2023-07-17T07:00:15.382Z,63.16
2023-07-17T07:01:15.432Z,58.33
2023-07-17T07:02:15.383Z,62.84
2023-07-17T07:03:15.419Z,56.40
2023-07-17T07:04:15.617Z,59.78
2023-07-17T07:05:15.898Z,59.78
2023-07-17T07:06:15.723Z,55.11
2023-07-17T07:07:18.164Z,56.40
2023-07-17T07:08:15.328Z,63.49
2023-07-17T07:09:15.356Z,54.46
2023-07-17T07:10:15.342Z,59.94
2023-07-17T07:11:15.326Z,62.84
2023-07-17T07:12:15.398Z,56.56
2023-07-17T07:13:15.338Z,63.81
2023-07-17T07:14:15.326Z,62.84
2023-07-17T07:15:15.292Z,61.07
2023-07-17T07:16:15.395Z,61.71
2023-07-17T07:17:15.316Z,57.20
2023-07-17T07:18:15.426Z,55.43
2023-07-17T07:19:15.311Z,59.30
2023-07-17T07:20:15.292Z,62.36
2023-07-17T07:21:15.309Z,61.23
2023-07-17T07:22:15.300Z,58.65
2023-07-17T07:23:15.390Z,53.82
2023-07-17T07:24:15.241Z,58.81
2023-07-17T07:25:15.245Z,54.14
2023-07-17T07:26:15.304Z,53.17
2023-07-17T07:27:15.255Z,53.82
2023-07-17T07:28:15.252Z,57.85
2023-07-17T07:29:15.213Z,56.56
2023-07-17T07:30:15.249Z,56.56
2023-07-17T07:31:15.299Z,55.43
2023-07-17T07:32:15.234Z,54.95
2023-07-17T07:33:15.191Z,64.61
2023-07-17T07:34:15.234Z,60.26
2023-07-17T07:35:15.182Z,61.23
2023-07-17T07:36:15.410Z,60.75
2023-07-17T07:37:15.181Z,58.65
2023-07-17T07:38:15.168Z,59.30
2023-07-17T07:39:15.202Z,58.17
2023-07-17T07:40:15.178Z,60.26
2023-07-17T07:41:15.156Z,53.98
2023-07-17T07:42:15.153Z,54.95
2023-07-17T07:43:15.171Z,64.94
2023-07-17T07:44:15.157Z,60.26
2023-07-17T07:45:15.175Z,59.94
2023-07-17T07:46:15.338Z,53.17
2023-07-17T07:47:15.151Z,54.14
2023-07-17T07:48:15.143Z,53.98
2023-07-17T07:49:15.148Z,56.07
2023-07-17T07:50:15.143Z,58.65
2023-07-17T07:51:17.077Z,54.62
2023-07-17T07:52:16.143Z,58.65
2023-07-17T07:53:15.096Z,59.46
2023-07-17T07:54:21.445Z,59.62
2023-07-17T07:55:17.206Z,56.72
2023-07-17T07:56:15.377Z,53.33
2023-07-17T07:57:15.064Z,55.59
2023-07-17T07:58:15.090Z,52.53
2023-07-17T07:59:15.083Z,58.65
2023-07-17T08:00:15.052Z,56.88
2023-07-17T08:01:15.062Z,58.65
2023-07-17T08:02:15.132Z,55.59
2023-07-17T08:03:15.163Z,59.78
2023-07-17T08:04:15.132Z,59.78
2023-07-17T08:05:15.041Z,56.56
2023-07-17T08:06:15.096Z,58.65
2023-07-17T08:07:15.033Z,62.20
2023-07-17T08:08:15.020Z,57.36
2023-07-17T08:09:15.043Z,53.66
2023-07-17T08:10:15.018Z,52.53
2023-07-17T08:11:15.017Z,54.46
2023-07-17T08:12:15.010Z,52.37
2023-07-17T08:13:15.004Z,53.17
2023-07-17T08:14:15.007Z,51.40
2023-07-17T08:15:15.033Z,57.85
2023-07-17T08:16:15.025Z,54.79
2023-07-17T08:17:14.969Z,58.49
2023-07-17T08:18:15.021Z,56.88
2023-07-17T08:19:14.958Z,57.85
2023-07-17T08:20:15.017Z,61.55
2023-07-17T08:21:14.956Z,59.46
2023-07-17T08:22:15.959Z,58.65
2023-07-17T08:23:15.009Z,57.52
2023-07-17T08:24:14.942Z,56.40
2023-07-17T08:25:15.955Z,55.75
2023-07-17T08:26:15.004Z,58.33
2023-07-17T08:27:14.928Z,56.07
2023-07-17T08:28:14.942Z,56.40
2023-07-17T08:29:14.944Z,59.62
2023-07-17T08:30:14.921Z,56.40
2023-07-17T08:31:14.929Z,57.04
2023-07-17T08:32:14.896Z,56.88
2023-07-17T08:33:14.892Z,63.16
2023-07-17T08:34:14.909Z,58.49
2023-07-17T08:35:14.906Z,62.20
2023-07-17T08:36:14.878Z,65.10
2023-07-17T08:37:14.869Z,60.59
2023-07-17T08:38:14.894Z,66.55
2023-07-17T08:39:14.878Z,68.96
2023-07-17T08:40:14.888Z,70.09
2023-07-17T08:41:14.909Z,66.39
2023-07-17T08:42:14.856Z,63.16
2023-07-17T08:43:14.817Z,60.91
2023-07-17T08:44:14.831Z,56.40
2023-07-17T08:45:14.832Z,57.52
2023-07-17T08:46:14.854Z,58.97
2023-07-17T08:47:14.823Z,65.42
2023-07-17T08:48:14.831Z,67.51
2023-07-17T08:49:15.788Z,65.58
2023-07-17T08:50:14.819Z,56.24
2023-07-17T08:51:14.825Z,56.56
2023-07-17T08:52:14.775Z,60.75
2023-07-17T08:53:14.789Z,58.65
2023-07-17T08:54:28.464Z,58.65
2023-07-17T08:55:16.809Z,55.75
2023-07-17T08:56:14.781Z,57.20
2023-07-17T08:57:14.776Z,59.94
2023-07-17T08:58:14.758Z,59.78
2023-07-17T08:59:14.768Z,55.75
2023-07-17T09:00:14.775Z,59.14
2023-07-17T09:01:14.775Z,59.14
2023-07-17T09:02:14.729Z,59.30
2023-07-17T09:03:15.223Z,57.36
2023-07-17T09:04:14.708Z,57.69
2023-07-17T09:05:14.738Z,62.52
2023-07-17T09:06:14.702Z,57.52
2023-07-17T09:07:14.717Z,61.55
2023-07-17T09:08:14.708Z,59.14
2023-07-17T09:09:14.689Z,57.52
2023-07-17T09:10:14.702Z,57.20
2023-07-17T09:11:14.751Z,60.26
2023-07-17T09:12:14.689Z,63.65
2023-07-17T09:13:14.686Z,59.14
2023-07-17T09:14:14.663Z,57.20
2023-07-17T09:15:14.691Z,58.65
2023-07-17T09:16:15.492Z,59.78
2023-07-17T09:17:14.690Z,59.46
2023-07-17T09:18:14.656Z,57.52
2023-07-17T09:19:15.637Z,58.49
2023-07-17T09:20:14.649Z,59.78
2023-07-17T09:21:14.739Z,58.33
2023-07-17T09:22:15.601Z,61.07
2023-07-17T09:23:14.730Z,57.69
2023-07-17T09:24:14.667Z,60.75
2023-07-17T09:25:14.612Z,59.30
2023-07-17T09:26:14.610Z,58.81
2023-07-17T09:27:14.590Z,59.78
2023-07-17T09:28:14.603Z,59.94
2023-07-17T09:29:14.584Z,62.52
2023-07-17T09:30:14.577Z,61.23
2023-07-17T09:31:14.640Z,65.42
2023-07-17T09:32:14.576Z,62.20
2023-07-17T09:33:14.565Z,58.97
2023-07-17T09:34:14.600Z,59.30
2023-07-17T09:35:14.613Z,58.17
2023-07-17T09:36:14.547Z,62.36
2023-07-17T09:37:14.529Z,55.11
2023-07-17T09:38:14.556Z,58.81
2023-07-17T09:39:14.520Z,54.95
2023-07-17T09:40:14.559Z,56.88
2023-07-17T09:41:14.521Z,54.30
2023-07-17T09:42:14.515Z,55.43
2023-07-17T09:43:14.502Z,56.56
2023-07-17T09:44:14.488Z,54.62
2023-07-17T09:45:14.481Z,58.97
2023-07-17T09:46:15.547Z,60.26
2023-07-17T09:47:14.529Z,60.59
2023-07-17T09:48:14.467Z,59.30
2023-07-17T09:49:14.474Z,59.14
2023-07-17T09:50:14.493Z,58.17
2023-07-17T09:51:14.542Z,59.14
2023-07-17T09:52:14.449Z,58.65
2023-07-17T09:53:14.433Z,57.20
2023-07-17T09:54:14.450Z,55.59
2023-07-17T09:55:14.441Z,58.81
2023-07-17T09:56:14.453Z,54.30
2023-07-17T09:57:14.434Z,53.50
2023-07-17T09:58:14.402Z,58.65
2023-07-17T09:59:14.435Z,56.07
2023-07-17T10:00:14.540Z,57.20
2023-07-17T10:01:14.463Z,57.69
2023-07-17T10:02:14.429Z,61.39
2023-07-17T10:03:14.654Z,59.30
2023-07-17T10:04:14.528Z,54.30
2023-07-17T10:05:14.386Z,58.01
2023-07-17T10:06:14.398Z,55.75
2023-07-17T10:07:14.387Z,56.40
2023-07-17T10:08:14.454Z,56.56
2023-07-17T10:09:14.371Z,57.04
2023-07-17T10:10:14.463Z,58.81
2023-07-17T10:11:14.419Z,58.17
2023-07-17T10:12:14.352Z,59.14
2023-07-17T10:13:14.353Z,56.56
2023-07-17T10:14:14.346Z,58.33
2023-07-17T10:15:14.374Z,57.69
2023-07-17T10:16:14.408Z,59.94
2023-07-17T10:17:14.366Z,58.97
2023-07-17T10:18:14.401Z,60.91
2023-07-17T10:19:14.402Z,56.07
2023-07-17T10:20:14.365Z,59.78
2023-07-17T10:21:14.450Z,59.46
2023-07-17T10:22:14.327Z,60.75
2023-07-17T10:23:14.364Z,58.65
2023-07-17T10:24:14.300Z,56.56
2023-07-17T10:25:14.295Z,63.00
2023-07-17T10:26:14.292Z,59.30
2023-07-17T10:27:14.296Z,59.78
2023-07-17T10:28:14.298Z,59.14
2023-07-17T10:29:14.264Z,59.14
2023-07-17T10:30:14.283Z,59.94
2023-07-17T10:31:14.352Z,57.69
2023-07-17T10:32:14.267Z,56.88
2023-07-17T10:33:14.257Z,58.65
2023-07-17T10:34:14.263Z,56.40
2023-07-17T10:35:14.249Z,57.85
2023-07-17T10:36:14.277Z,58.65
2023-07-17T10:37:14.229Z,58.97
2023-07-17T10:38:14.231Z,59.78
2023-07-17T10:39:14.221Z,60.10
2023-07-17T10:40:14.308Z,62.52
2023-07-17T10:41:14.312Z,57.52
2023-07-17T10:42:14.222Z,56.56
2023-07-17T10:43:14.241Z,59.78
2023-07-17T10:44:19.496Z,55.59
2023-07-17T10:45:15.224Z,59.94
2023-07-17T10:46:14.216Z,61.71
2023-07-17T10:47:14.195Z,58.65
2023-07-17T10:48:14.351Z,61.55
2023-07-17T10:49:14.211Z,59.78
2023-07-17T10:50:14.219Z,66.87
2023-07-17T10:51:14.258Z,59.94
2023-07-17T10:52:14.193Z,59.30
2023-07-17T10:53:14.162Z,61.39
2023-07-17T10:54:14.163Z,64.78
2023-07-17T10:55:14.143Z,62.20
2023-07-17T10:56:14.202Z,60.91
2023-07-17T10:57:14.123Z,59.94
2023-07-17T10:58:14.127Z,59.30
2023-07-17T10:59:14.121Z,58.65
2023-07-17T11:00:14.130Z,60.10
2023-07-17T11:01:14.152Z,59.78
2023-07-17T11:02:14.266Z,59.14
2023-07-17T11:03:14.125Z,59.14
2023-07-17T11:04:14.168Z,61.07
2023-07-17T11:05:15.016Z,60.42
2023-07-17T11:06:14.084Z,59.62
2023-07-17T11:07:14.115Z,60.10
2023-07-17T11:08:14.144Z,59.94
2023-07-17T11:09:14.089Z,60.10
2023-07-17T11:10:14.102Z,59.94
2023-07-17T11:11:14.083Z,59.14
2023-07-17T11:12:14.108Z,56.56
2023-07-17T11:13:14.086Z,58.33
2023-07-17T11:14:14.055Z,59.78
2023-07-17T11:15:14.046Z,56.07
2023-07-17T11:16:14.036Z,56.88
2023-07-17T11:17:14.098Z,60.59
2023-07-17T11:18:14.089Z,62.68
2023-07-17T11:19:14.051Z,59.14
2023-07-17T11:20:14.015Z,54.46
2023-07-17T11:21:14.051Z,59.30
2023-07-17T11:22:14.056Z,55.59
2023-07-17T11:23:14.138Z,58.65
2023-07-17T11:24:14.014Z,58.65
2023-07-17T11:25:13.994Z,59.78
2023-07-17T11:26:14.023Z,57.69
2023-07-17T11:27:14.021Z,57.20
2023-07-17T11:28:14.013Z,59.62
2023-07-17T11:29:13.977Z,59.14
2023-07-17T11:30:14.015Z,60.42
2023-07-17T11:31:14.127Z,59.30
2023-07-17T11:32:14.132Z,58.49
2023-07-17T11:33:13.953Z,58.65
2023-07-17T11:34:13.958Z,62.20
2023-07-17T11:35:13.968Z,59.30
2023-07-17T11:36:13.967Z,60.10
2023-07-17T11:37:13.977Z,58.49
2023-07-17T11:38:13.945Z,56.56
2023-07-17T11:39:13.977Z,55.75
2023-07-17T11:40:13.948Z,55.43
2023-07-17T11:41:13.974Z,58.01
2023-07-17T11:42:13.938Z,58.17
2023-07-17T11:43:13.926Z,59.14
2023-07-17T11:44:13.913Z,60.26
2023-07-17T11:45:13.924Z,58.81
2023-07-17T11:46:13.966Z,57.20
2023-07-17T11:47:13.925Z,53.66
2023-07-17T11:48:13.923Z,60.75
2023-07-17T11:49:13.938Z,55.27
2023-07-17T11:50:13.920Z,54.79
2023-07-17T11:51:13.889Z,52.53
2023-07-17T11:52:13.921Z,55.11
2023-07-17T11:53:13.960Z,54.14
2023-07-17T11:54:13.897Z,57.36
2023-07-17T11:55:13.887Z,58.97
2023-07-17T11:56:13.877Z,54.46
2023-07-17T11:57:13.906Z,51.56
2023-07-17T11:58:13.881Z,55.91
2023-07-17T11:59:13.869Z,56.72
2023-07-17T12:00:13.860Z,54.79
2023-07-17T12:01:13.840Z,55.59
2023-07-17T12:02:13.894Z,59.30
2023-07-17T12:03:13.856Z,58.33
2023-07-17T12:04:13.913Z,58.17
2023-07-17T12:05:13.813Z,55.59
2023-07-17T12:06:13.835Z,56.72
2023-07-17T12:07:13.817Z,53.50
2023-07-17T12:08:13.856Z,58.33
2023-07-17T12:09:13.837Z,56.56
2023-07-17T12:10:13.889Z,58.01
2023-07-17T12:11:13.878Z,56.72
2023-07-17T12:12:13.845Z,63.65
2023-07-17T12:13:13.837Z,61.71
2023-07-17T12:14:13.828Z,58.49
2023-07-17T12:15:13.831Z,56.40
2023-07-17T12:16:13.841Z,54.14
2023-07-17T12:17:13.777Z,54.46
2023-07-17T12:18:13.777Z,58.97
2023-07-17T12:19:13.822Z,58.65
2023-07-17T12:20:13.882Z,62.36
2023-07-17T12:21:13.764Z,59.30
2023-07-17T12:23:14.890Z,58.65
2023-07-17T12:24:14.670Z,58.17
2023-07-17T12:25:13.750Z,58.17
2023-07-17T12:26:13.778Z,59.78
2023-07-17T12:27:13.737Z,59.14
2023-07-17T12:28:13.752Z,62.20
2023-07-17T12:29:13.728Z,59.78
2023-07-17T12:30:13.834Z,58.97
2023-07-17T12:31:13.716Z,59.14
2023-07-17T12:32:13.719Z,58.49
2023-07-17T12:33:13.772Z,56.72
2023-07-17T12:34:13.702Z,59.94
2023-07-17T12:35:13.722Z,57.52
2023-07-17T12:36:13.691Z,55.11
2023-07-17T12:37:13.674Z,53.98
2023-07-17T12:38:13.690Z,55.11
2023-07-17T12:39:13.704Z,57.20
2023-07-17T12:40:13.713Z,59.62
2023-07-17T12:41:13.690Z,56.07
2023-07-17T12:42:13.681Z,58.97
2023-07-17T12:43:13.672Z,56.88
2023-07-17T12:44:13.668Z,58.17
2023-07-17T12:45:13.653Z,59.14
2023-07-17T12:46:13.750Z,59.78
2023-07-17T12:47:13.648Z,55.11
2023-07-17T12:48:13.759Z,58.17
2023-07-17T12:49:13.653Z,61.07
2023-07-17T12:50:13.636Z,60.10
2023-07-17T12:51:13.672Z,58.49
2023-07-17T12:52:13.614Z,60.10
2023-07-17T12:53:13.608Z,60.10